sensor_id;sensor_type;location;lat;lon;timestamp;P1;durP1;ratioP1;P2;durP2;ratioP2
13026;SDS011;6580;42.680;23.324;2023-04-03T00:00:16;3.63;;;3.10;;
13026;SDS011;6580;42.680;23.324;2023-04-03T00:03:01;5.53;;;4.13;;
13026;SDS011;6580;42.680;23.324;2023-04-03T00:05:47;5.10;;;3.80;;
13026;SDS011;6580;42.680;23.324;2023-04-03T00:08:33;5.77;;;4.13;;
13026;SDS011;6580;42.680;23.324;2023-04-03T00:11:18;5.43;;;3.87;;
13026;SDS011;6580;42.680;23.324;2023-04-03T00:14:05;6.00;;;4.67;;
13026;SDS011;6580;42.680;23.324;2023-04-03T00:16:53;7.83;;;4.67;;
13026;SDS011;6580;42.680;23.324;2023-04-03T00:19:38;6.50;;;4.83;;
13026;SDS011;6580;42.680;23.324;2023-04-03T00:22:24;4.63;;;4.20;;
13026;SDS011;6580;42.680;23.324;2023-04-03T00:25:12;5.40;;;3.70;;
13026;SDS011;6580;42.680;23.324;2023-04-03T00:27:58;5.83;;;4.10;;
13026;SDS011;6580;42.680;23.324;2023-04-03T00:30:44;5.70;;;4.63;;
13026;SDS011;6580;42.680;23.324;2023-04-03T00:33:31;5.00;;;4.10;;
13026;SDS011;6580;42.680;23.324;2023-04-03T00:36:16;4.97;;;4.13;;
13026;SDS011;6580;42.680;23.324;2023-04-03T00:39:02;4.70;;;3.60;;
13026;SDS011;6580;42.680;23.324;2023-04-03T00:41:47;4.53;;;3.83;;
13026;SDS011;6580;42.680;23.324;2023-04-03T00:47:52;6.63;;;4.10;;
13026;SDS011;6580;42.680;23.324;2023-04-03T00:50:40;4.73;;;4.20;;
13026;SDS011;6580;42.680;23.324;2023-04-03T00:53:28;4.23;;;3.63;;
13026;SDS011;6580;42.680;23.324;2023-04-03T00:56:18;7.60;;;6.90;;
13026;SDS011;6580;42.680;23.324;2023-04-03T00:59:08;4.00;;;3.60;;
13026;SDS011;6580;42.680;23.324;2023-04-03T01:01:58;4.27;;;3.87;;
13026;SDS011;6580;42.680;23.324;2023-04-03T01:04:45;5.00;;;3.57;;
13026;SDS011;6580;42.680;23.324;2023-04-03T01:07:32;5.47;;;4.43;;
13026;SDS011;6580;42.680;23.324;2023-04-03T01:10:20;4.73;;;3.53;;
13026;SDS011;6580;42.680;23.324;2023-04-03T01:13:17;3.63;;;3.20;;
13026;SDS011;6580;42.680;23.324;2023-04-03T01:16:05;3.77;;;3.40;;
13026;SDS011;6580;42.680;23.324;2023-04-03T01:18:52;5.13;;;4.07;;
13026;SDS011;6580;42.680;23.324;2023-04-03T01:28:03;5.00;;;4.50;;
13026;SDS011;6580;42.680;23.324;2023-04-03T01:30:50;6.20;;;4.13;;
13026;SDS011;6580;42.680;23.324;2023-04-03T01:33:42;5.00;;;3.80;;
13026;SDS011;6580;42.680;23.324;2023-04-03T01:36:30;5.30;;;4.33;;
13026;SDS011;6580;42.680;23.324;2023-04-03T01:39:16;5.13;;;4.07;;
13026;SDS011;6580;42.680;23.324;2023-04-03T01:42:02;4.13;;;3.60;;
13026;SDS011;6580;42.680;23.324;2023-04-03T01:44:47;5.97;;;4.07;;
13026;SDS011;6580;42.680;23.324;2023-04-03T01:47:33;4.10;;;3.70;;
13026;SDS011;6580;42.680;23.324;2023-04-03T01:50:24;3.00;;;2.80;;
13026;SDS011;6580;42.680;23.324;2023-04-03T01:53:10;3.30;;;3.00;;
13026;SDS011;6580;42.680;23.324;2023-04-03T01:55:56;3.40;;;3.00;;
13026;SDS011;6580;42.680;23.324;2023-04-03T01:58:41;3.37;;;3.07;;
13026;SDS011;6580;42.680;23.324;2023-04-03T02:01:26;3.67;;;3.13;;
13026;SDS011;6580;42.680;23.324;2023-04-03T02:04:12;4.37;;;3.10;;
13026;SDS011;6580;42.680;23.324;2023-04-03T02:06:59;4.33;;;3.07;;
13026;SDS011;6580;42.680;23.324;2023-04-03T02:09:44;3.27;;;2.97;;
13026;SDS011;6580;42.680;23.324;2023-04-03T02:12:30;3.80;;;3.07;;
13026;SDS011;6580;42.680;23.324;2023-04-03T02:15:16;3.27;;;2.60;;
13026;SDS011;6580;42.680;23.324;2023-04-03T02:18:01;3.77;;;3.20;;
13026;SDS011;6580;42.680;23.324;2023-04-03T02:20:48;3.77;;;2.93;;
13026;SDS011;6580;42.680;23.324;2023-04-03T02:23:36;4.93;;;3.40;;
13026;SDS011;6580;42.680;23.324;2023-04-03T02:26:21;5.17;;;4.00;;
13026;SDS011;6580;42.680;23.324;2023-04-03T02:29:06;4.63;;;4.23;;
13026;SDS011;6580;42.680;23.324;2023-04-03T02:31:52;4.43;;;4.03;;
13026;SDS011;6580;42.680;23.324;2023-04-03T02:34:39;4.60;;;3.70;;
13026;SDS011;6580;42.680;23.324;2023-04-03T02:37:25;4.20;;;3.30;;
13026;SDS011;6580;42.680;23.324;2023-04-03T02:40:12;4.43;;;3.43;;
13026;SDS011;6580;42.680;23.324;2023-04-03T02:42:58;4.50;;;3.63;;
13026;SDS011;6580;42.680;23.324;2023-04-03T02:45:44;4.57;;;3.47;;
13026;SDS011;6580;42.680;23.324;2023-04-03T02:48:30;4.17;;;3.77;;
13026;SDS011;6580;42.680;23.324;2023-04-03T02:51:16;4.60;;;3.90;;
13026;SDS011;6580;42.680;23.324;2023-04-03T02:54:01;3.80;;;3.40;;
13026;SDS011;6580;42.680;23.324;2023-04-03T02:56:49;3.60;;;3.30;;
13026;SDS011;6580;42.680;23.324;2023-04-03T02:59:35;4.67;;;3.57;;
13026;SDS011;6580;42.680;23.324;2023-04-03T03:02:20;4.87;;;4.07;;
13026;SDS011;6580;42.680;23.324;2023-04-03T03:05:06;4.63;;;4.10;;
13026;SDS011;6580;42.680;23.324;2023-04-03T03:07:55;4.30;;;3.70;;
13026;SDS011;6580;42.680;23.324;2023-04-03T03:10:40;5.47;;;3.87;;
13026;SDS011;6580;42.680;23.324;2023-04-03T03:16:16;4.97;;;4.10;;
13026;SDS011;6580;42.680;23.324;2023-04-03T03:19:02;5.63;;;3.90;;
13026;SDS011;6580;42.680;23.324;2023-04-03T03:21:47;4.90;;;4.40;;
13026;SDS011;6580;42.680;23.324;2023-04-03T03:24:34;7.30;;;4.33;;
13026;SDS011;6580;42.680;23.324;2023-04-03T03:27:21;6.73;;;4.20;;
13026;SDS011;6580;42.680;23.324;2023-04-03T03:30:09;7.53;;;4.97;;
13026;SDS011;6580;42.680;23.324;2023-04-03T03:32:55;6.03;;;5.07;;
13026;SDS011;6580;42.680;23.324;2023-04-03T03:35:40;5.93;;;4.47;;
13026;SDS011;6580;42.680;23.324;2023-04-03T03:38:26;5.57;;;5.03;;
13026;SDS011;6580;42.680;23.324;2023-04-03T03:41:11;5.20;;;4.63;;
13026;SDS011;6580;42.680;23.324;2023-04-03T03:43:57;7.67;;;5.50;;
13026;SDS011;6580;42.680;23.324;2023-04-03T03:46:44;6.67;;;5.93;;
13026;SDS011;6580;42.680;23.324;2023-04-03T03:49:29;6.90;;;5.83;;
13026;SDS011;6580;42.680;23.324;2023-04-03T03:52:14;10.63;;;6.20;;
13026;SDS011;6580;42.680;23.324;2023-04-03T03:54:59;7.30;;;5.60;;
13026;SDS011;6580;42.680;23.324;2023-04-03T03:57:45;7.67;;;5.27;;
13026;SDS011;6580;42.680;23.324;2023-04-03T04:00:31;5.37;;;4.87;;
13026;SDS011;6580;42.680;23.324;2023-04-03T04:03:18;7.47;;;5.90;;
13026;SDS011;6580;42.680;23.324;2023-04-03T04:06:04;8.27;;;6.13;;
13026;SDS011;6580;42.680;23.324;2023-04-03T04:08:49;8.87;;;5.90;;
13026;SDS011;6580;42.680;23.324;2023-04-03T04:11:35;8.07;;;6.43;;
13026;SDS011;6580;42.680;23.324;2023-04-03T04:14:23;10.43;;;7.10;;
13026;SDS011;6580;42.680;23.324;2023-04-03T04:17:09;8.77;;;6.57;;
13026;SDS011;6580;42.680;23.324;2023-04-03T04:19:58;7.90;;;6.07;;
13026;SDS011;6580;42.680;23.324;2023-04-03T04:22:43;6.80;;;6.10;;
13026;SDS011;6580;42.680;23.324;2023-04-03T04:25:30;8.80;;;6.37;;
13026;SDS011;6580;42.680;23.324;2023-04-03T04:28:17;6.67;;;5.97;;
13026;SDS011;6580;42.680;23.324;2023-04-03T04:31:02;10.60;;;5.90;;
13026;SDS011;6580;42.680;23.324;2023-04-03T04:33:48;8.13;;;6.30;;
13026;SDS011;6580;42.680;23.324;2023-04-03T04:36:35;7.07;;;5.70;;
13026;SDS011;6580;42.680;23.324;2023-04-03T04:39:21;8.63;;;6.10;;
13026;SDS011;6580;42.680;23.324;2023-04-03T04:42:07;9.27;;;5.63;;
13026;SDS011;6580;42.680;23.324;2023-04-03T04:44:56;6.27;;;5.60;;
13026;SDS011;6580;42.680;23.324;2023-04-03T04:47:42;8.83;;;5.80;;
13026;SDS011;6580;42.680;23.324;2023-04-03T04:50:28;8.73;;;5.43;;
13026;SDS011;6580;42.680;23.324;2023-04-03T04:53:16;7.60;;;6.30;;
13026;SDS011;6580;42.680;23.324;2023-04-03T04:56:01;8.07;;;6.23;;
13026;SDS011;6580;42.680;23.324;2023-04-03T04:58:49;9.83;;;6.47;;
13026;SDS011;6580;42.680;23.324;2023-04-03T05:01:35;7.57;;;6.57;;
13026;SDS011;6580;42.680;23.324;2023-04-03T05:04:20;6.73;;;6.07;;
13026;SDS011;6580;42.680;23.324;2023-04-03T05:07:06;8.80;;;6.20;;
13026;SDS011;6580;42.680;23.324;2023-04-03T05:09:53;8.63;;;6.33;;
13026;SDS011;6580;42.680;23.324;2023-04-03T05:12:39;7.03;;;5.93;;
13026;SDS011;6580;42.680;23.324;2023-04-03T05:15:25;7.83;;;6.10;;
13026;SDS011;6580;42.680;23.324;2023-04-03T05:18:11;7.97;;;6.30;;
13026;SDS011;6580;42.680;23.324;2023-04-03T05:20:56;8.50;;;6.47;;
13026;SDS011;6580;42.680;23.324;2023-04-03T05:23:43;8.43;;;6.40;;
13026;SDS011;6580;42.680;23.324;2023-04-03T05:26:32;7.83;;;6.30;;
13026;SDS011;6580;42.680;23.324;2023-04-03T05:29:17;8.60;;;6.63;;
13026;SDS011;6580;42.680;23.324;2023-04-03T05:32:03;8.47;;;6.53;;
13026;SDS011;6580;42.680;23.324;2023-04-03T05:34:49;8.03;;;6.30;;
13026;SDS011;6580;42.680;23.324;2023-04-03T05:37:36;11.07;;;6.43;;
13026;SDS011;6580;42.680;23.324;2023-04-03T05:40:21;9.17;;;6.73;;
13026;SDS011;6580;42.680;23.324;2023-04-03T05:43:10;9.47;;;7.37;;
13026;SDS011;6580;42.680;23.324;2023-04-03T05:45:55;10.37;;;8.30;;
13026;SDS011;6580;42.680;23.324;2023-04-03T05:48:41;11.00;;;8.00;;
13026;SDS011;6580;42.680;23.324;2023-04-03T05:51:33;11.03;;;8.03;;
13026;SDS011;6580;42.680;23.324;2023-04-03T05:54:23;13.03;;;7.60;;
13026;SDS011;6580;42.680;23.324;2023-04-03T05:57:11;12.37;;;8.50;;
13026;SDS011;6580;42.680;23.324;2023-04-03T05:59:59;11.27;;;8.53;;
13026;SDS011;6580;42.680;23.324;2023-04-03T06:02:45;12.33;;;8.13;;
13026;SDS011;6580;42.680;23.324;2023-04-03T06:05:33;10.47;;;8.17;;
13026;SDS011;6580;42.680;23.324;2023-04-03T06:08:19;11.87;;;8.60;;
13026;SDS011;6580;42.680;23.324;2023-04-03T06:11:05;12.40;;;9.33;;
13026;SDS011;6580;42.680;23.324;2023-04-03T06:13:52;14.23;;;9.57;;
13026;SDS011;6580;42.680;23.324;2023-04-03T06:16:39;14.10;;;9.10;;
13026;SDS011;6580;42.680;23.324;2023-04-03T06:19:25;20.30;;;18.23;;
13026;SDS011;6580;42.680;23.324;2023-04-03T06:22:10;17.50;;;10.00;;
13026;SDS011;6580;42.680;23.324;2023-04-03T06:24:56;10.47;;;8.67;;
13026;SDS011;6580;42.680;23.324;2023-04-03T06:27:42;13.10;;;7.50;;
13026;SDS011;6580;42.680;23.324;2023-04-03T06:30:28;11.60;;;8.53;;
13026;SDS011;6580;42.680;23.324;2023-04-03T06:33:15;9.73;;;7.10;;
13026;SDS011;6580;42.680;23.324;2023-04-03T06:36:05;9.00;;;8.10;;
13026;SDS011;6580;42.680;23.324;2023-04-03T06:38:56;11.80;;;7.67;;
13026;SDS011;6580;42.680;23.324;2023-04-03T06:41:45;12.40;;;7.97;;
13026;SDS011;6580;42.680;23.324;2023-04-03T06:44:30;13.80;;;10.37;;
13026;SDS011;6580;42.680;23.324;2023-04-03T06:47:17;13.93;;;10.40;;
13026;SDS011;6580;42.680;23.324;2023-04-03T06:50:05;13.10;;;9.93;;
13026;SDS011;6580;42.680;23.324;2023-04-03T06:52:52;11.10;;;8.87;;
13026;SDS011;6580;42.680;23.324;2023-04-03T06:55:41;10.70;;;8.60;;
13026;SDS011;6580;42.680;23.324;2023-04-03T06:58:26;13.20;;;7.93;;
13026;SDS011;6580;42.680;23.324;2023-04-03T07:01:17;10.40;;;8.17;;
13026;SDS011;6580;42.680;23.324;2023-04-03T07:04:04;12.10;;;8.73;;
13026;SDS011;6580;42.680;23.324;2023-04-03T07:06:53;9.70;;;8.43;;
13026;SDS011;6580;42.680;23.324;2023-04-03T07:09:41;12.47;;;8.97;;
13026;SDS011;6580;42.680;23.324;2023-04-03T07:12:27;14.37;;;8.73;;
13026;SDS011;6580;42.680;23.324;2023-04-03T07:15:15;8.63;;;7.67;;
13026;SDS011;6580;42.680;23.324;2023-04-03T07:18:03;10.30;;;6.27;;
13026;SDS011;6580;42.680;23.324;2023-04-03T07:20:49;6.13;;;5.53;;
13026;SDS011;6580;42.680;23.324;2023-04-03T07:23:37;8.90;;;6.67;;
13026;SDS011;6580;42.680;23.324;2023-04-03T07:26:24;8.37;;;5.77;;
13026;SDS011;6580;42.680;23.324;2023-04-03T07:29:09;9.27;;;7.90;;
13026;SDS011;6580;42.680;23.324;2023-04-03T07:31:58;6.47;;;5.80;;
13026;SDS011;6580;42.680;23.324;2023-04-03T07:34:44;8.47;;;6.60;;
13026;SDS011;6580;42.680;23.324;2023-04-03T07:37:29;9.10;;;6.03;;
13026;SDS011;6580;42.680;23.324;2023-04-03T07:40:22;10.13;;;7.30;;
13026;SDS011;6580;42.680;23.324;2023-04-03T07:43:07;10.67;;;8.27;;
13026;SDS011;6580;42.680;23.324;2023-04-03T07:45:53;7.80;;;7.00;;
13026;SDS011;6580;42.680;23.324;2023-04-03T07:48:38;9.10;;;7.13;;
13026;SDS011;6580;42.680;23.324;2023-04-03T07:51:24;8.50;;;7.57;;
13026;SDS011;6580;42.680;23.324;2023-04-03T07:54:11;12.23;;;8.07;;
13026;SDS011;6580;42.680;23.324;2023-04-03T07:56:59;10.60;;;9.03;;
13026;SDS011;6580;42.680;23.324;2023-04-03T07:59:45;14.60;;;9.67;;
13026;SDS011;6580;42.680;23.324;2023-04-03T08:02:30;13.13;;;9.80;;
13026;SDS011;6580;42.680;23.324;2023-04-03T08:05:17;12.73;;;10.27;;
13026;SDS011;6580;42.680;23.324;2023-04-03T08:08:02;13.53;;;9.83;;
13026;SDS011;6580;42.680;23.324;2023-04-03T08:10:51;12.47;;;9.33;;
13026;SDS011;6580;42.680;23.324;2023-04-03T08:13:39;12.27;;;8.83;;
13026;SDS011;6580;42.680;23.324;2023-04-03T08:16:25;14.87;;;9.90;;
13026;SDS011;6580;42.680;23.324;2023-04-03T08:19:11;12.50;;;9.60;;
13026;SDS011;6580;42.680;23.324;2023-04-03T08:21:59;11.43;;;8.57;;
13026;SDS011;6580;42.680;23.324;2023-04-03T08:24:47;15.03;;;10.00;;
13026;SDS011;6580;42.680;23.324;2023-04-03T08:27:34;12.40;;;10.87;;
13026;SDS011;6580;42.680;23.324;2023-04-03T08:30:24;15.77;;;10.37;;
13026;SDS011;6580;42.680;23.324;2023-04-03T08:33:10;16.40;;;10.27;;
13026;SDS011;6580;42.680;23.324;2023-04-03T08:35:55;13.53;;;11.40;;
13026;SDS011;6580;42.680;23.324;2023-04-03T08:38:40;12.80;;;10.53;;
13026;SDS011;6580;42.680;23.324;2023-04-03T08:41:28;16.40;;;11.43;;
13026;SDS011;6580;42.680;23.324;2023-04-03T08:44:22;15.63;;;11.13;;
13026;SDS011;6580;42.680;23.324;2023-04-03T08:47:17;17.87;;;12.47;;
13026;SDS011;6580;42.680;23.324;2023-04-03T08:50:11;13.53;;;12.20;;
13026;SDS011;6580;42.680;23.324;2023-04-03T08:53:00;16.27;;;12.07;;
13026;SDS011;6580;42.680;23.324;2023-04-03T08:55:49;17.97;;;12.90;;
13026;SDS011;6580;42.680;23.324;2023-04-03T08:58:41;14.57;;;11.10;;
13026;SDS011;6580;42.680;23.324;2023-04-03T09:01:33;15.77;;;13.80;;
13026;SDS011;6580;42.680;23.324;2023-04-03T09:04:24;16.57;;;11.37;;
13026;SDS011;6580;42.680;23.324;2023-04-03T09:07:13;16.53;;;11.17;;
13026;SDS011;6580;42.680;23.324;2023-04-03T09:10:05;11.67;;;10.13;;
13026;SDS011;6580;42.680;23.324;2023-04-03T09:12:54;11.43;;;9.77;;
13026;SDS011;6580;42.680;23.324;2023-04-03T09:15:45;9.40;;;7.83;;
13026;SDS011;6580;42.680;23.324;2023-04-03T09:18:30;10.43;;;9.03;;
13026;SDS011;6580;42.680;23.324;2023-04-03T09:21:24;9.33;;;8.17;;
13026;SDS011;6580;42.680;23.324;2023-04-03T09:24:16;9.40;;;8.17;;
13026;SDS011;6580;42.680;23.324;2023-04-03T09:27:03;10.97;;;8.63;;
13026;SDS011;6580;42.680;23.324;2023-04-03T09:29:52;8.43;;;7.53;;
13026;SDS011;6580;42.680;23.324;2023-04-03T09:32:39;10.93;;;7.10;;
13026;SDS011;6580;42.680;23.324;2023-04-03T09:35:26;6.77;;;6.00;;
13026;SDS011;6580;42.680;23.324;2023-04-03T09:38:18;8.77;;;7.00;;
13026;SDS011;6580;42.680;23.324;2023-04-03T09:41:06;7.93;;;5.27;;
13026;SDS011;6580;42.680;23.324;2023-04-03T09:43:58;11.17;;;6.93;;
13026;SDS011;6580;42.680;23.324;2023-04-03T09:46:46;9.63;;;6.70;;
13026;SDS011;6580;42.680;23.324;2023-04-03T09:49:32;11.20;;;7.43;;
13026;SDS011;6580;42.680;23.324;2023-04-03T09:52:19;9.33;;;8.23;;
13026;SDS011;6580;42.680;23.324;2023-04-03T09:55:13;8.37;;;7.57;;
13026;SDS011;6580;42.680;23.324;2023-04-03T09:58:01;9.20;;;6.63;;
13026;SDS011;6580;42.680;23.324;2023-04-03T10:00:53;7.63;;;6.67;;
13026;SDS011;6580;42.680;23.324;2023-04-03T10:03:39;8.57;;;7.27;;
13026;SDS011;6580;42.680;23.324;2023-04-03T10:06:31;10.30;;;7.00;;
13026;SDS011;6580;42.680;23.324;2023-04-03T10:09:20;9.30;;;6.93;;
13026;SDS011;6580;42.680;23.324;2023-04-03T10:12:08;10.17;;;7.90;;
13026;SDS011;6580;42.680;23.324;2023-04-03T10:14:56;9.00;;;7.17;;
13026;SDS011;6580;42.680;23.324;2023-04-03T10:17:47;10.90;;;7.83;;
13026;SDS011;6580;42.680;23.324;2023-04-03T10:20:37;10.40;;;7.87;;
13026;SDS011;6580;42.680;23.324;2023-04-03T10:23:30;10.53;;;8.07;;
13026;SDS011;6580;42.680;23.324;2023-04-03T10:26:28;8.93;;;7.67;;
13026;SDS011;6580;42.680;23.324;2023-04-03T10:29:25;9.13;;;7.20;;
13026;SDS011;6580;42.680;23.324;2023-04-03T10:32:26;7.10;;;6.40;;
13026;SDS011;6580;42.680;23.324;2023-04-03T10:35:33;10.43;;;7.00;;
13026;SDS011;6580;42.680;23.324;2023-04-03T10:38:32;7.93;;;6.60;;
13026;SDS011;6580;42.680;23.324;2023-04-03T10:41:30;8.53;;;6.67;;
13026;SDS011;6580;42.680;23.324;2023-04-03T10:44:26;7.70;;;5.60;;
13026;SDS011;6580;42.680;23.324;2023-04-03T10:47:22;8.23;;;5.23;;
13026;SDS011;6580;42.680;23.324;2023-04-03T10:50:29;4.93;;;4.00;;
13026;SDS011;6580;42.680;23.324;2023-04-03T10:53:24;6.73;;;5.17;;
13026;SDS011;6580;42.680;23.324;2023-04-03T10:56:18;6.87;;;4.30;;
13026;SDS011;6580;42.680;23.324;2023-04-03T10:59:18;6.53;;;4.63;;
13026;SDS011;6580;42.680;23.324;2023-04-03T11:02:16;7.17;;;5.27;;
13026;SDS011;6580;42.680;23.324;2023-04-03T11:05:13;4.60;;;4.10;;
13026;SDS011;6580;42.680;23.324;2023-04-03T11:08:04;7.23;;;5.23;;
13026;SDS011;6580;42.680;23.324;2023-04-03T11:10:57;5.97;;;4.43;;
13026;SDS011;6580;42.680;23.324;2023-04-03T11:13:46;5.17;;;3.80;;
13026;SDS011;6580;42.680;23.324;2023-04-03T11:16:39;4.67;;;3.30;;
13026;SDS011;6580;42.680;23.324;2023-04-03T11:19:34;3.70;;;3.03;;
13026;SDS011;6580;42.680;23.324;2023-04-03T11:22:26;3.50;;;3.20;;
13026;SDS011;6580;42.680;23.324;2023-04-03T11:25:18;3.13;;;2.83;;
13026;SDS011;6580;42.680;23.324;2023-04-03T11:28:09;4.43;;;3.50;;
13026;SDS011;6580;42.680;23.324;2023-04-03T11:31:01;3.43;;;2.87;;
13026;SDS011;6580;42.680;23.324;2023-04-03T11:33:58;3.20;;;2.90;;
13026;SDS011;6580;42.680;23.324;2023-04-03T11:36:54;3.40;;;3.10;;
13026;SDS011;6580;42.680;23.324;2023-04-03T11:39:47;3.53;;;3.20;;
13026;SDS011;6580;42.680;23.324;2023-04-03T11:42:41;3.90;;;3.50;;
13026;SDS011;6580;42.680;23.324;2023-04-03T11:45:35;3.40;;;3.07;;
13026;SDS011;6580;42.680;23.324;2023-04-03T11:54:47;3.73;;;3.43;;
13026;SDS011;6580;42.680;23.324;2023-04-03T11:57:43;3.60;;;3.30;;
13026;SDS011;6580;42.680;23.324;2023-04-03T12:10:00;3.77;;;3.47;;
13026;SDS011;6580;42.680;23.324;2023-04-03T12:12:56;3.30;;;3.10;;
13026;SDS011;6580;42.680;23.324;2023-04-03T12:15:50;5.07;;;3.27;;
13026;SDS011;6580;42.680;23.324;2023-04-03T12:18:40;5.13;;;4.60;;
13026;SDS011;6580;42.680;23.324;2023-04-03T12:24:57;4.90;;;3.13;;
13026;SDS011;6580;42.680;23.324;2023-04-03T12:27:44;3.73;;;3.43;;
13026;SDS011;6580;42.680;23.324;2023-04-03T12:30:38;3.37;;;3.07;;
13026;SDS011;6580;42.680;23.324;2023-04-03T12:33:29;4.73;;;3.10;;
13026;SDS011;6580;42.680;23.324;2023-04-03T12:36:26;4.03;;;2.80;;
13026;SDS011;6580;42.680;23.324;2023-04-03T12:39:39;3.40;;;3.20;;
13026;SDS011;6580;42.680;23.324;2023-04-03T12:42:51;4.10;;;3.70;;
13026;SDS011;6580;42.680;23.324;2023-04-03T12:45:49;4.10;;;3.67;;
13026;SDS011;6580;42.680;23.324;2023-04-03T12:48:49;4.97;;;4.53;;
13026;SDS011;6580;42.680;23.324;2023-04-03T12:51:38;4.50;;;4.10;;
13026;SDS011;6580;42.680;23.324;2023-04-03T12:54:26;5.00;;;4.50;;
13026;SDS011;6580;42.680;23.324;2023-04-03T12:57:16;5.07;;;4.57;;
13026;SDS011;6580;42.680;23.324;2023-04-03T13:00:20;5.83;;;5.07;;
13026;SDS011;6580;42.680;23.324;2023-04-03T13:06:24;5.97;;;5.27;;
13026;SDS011;6580;42.680;23.324;2023-04-03T13:09:18;5.47;;;4.60;;
13026;SDS011;6580;42.680;23.324;2023-04-03T13:12:09;5.87;;;5.00;;
13026;SDS011;6580;42.680;23.324;2023-04-03T13:14:59;5.13;;;4.63;;
13026;SDS011;6580;42.680;23.324;2023-04-03T13:21:11;5.93;;;5.30;;
13026;SDS011;6580;42.680;23.324;2023-04-03T13:24:00;5.30;;;4.80;;
13026;SDS011;6580;42.680;23.324;2023-04-03T13:26:59;6.33;;;5.73;;
13026;SDS011;6580;42.680;23.324;2023-04-03T13:29:48;6.20;;;5.70;;
13026;SDS011;6580;42.680;23.324;2023-04-03T13:32:35;6.10;;;5.53;;
13026;SDS011;6580;42.680;23.324;2023-04-03T13:35:35;8.63;;;7.73;;
13026;SDS011;6580;42.680;23.324;2023-04-03T13:38:24;9.53;;;8.03;;
13026;SDS011;6580;42.680;23.324;2023-04-03T13:41:23;9.13;;;8.00;;
13026;SDS011;6580;42.680;23.324;2023-04-03T13:44:32;7.83;;;7.13;;
13026;SDS011;6580;42.680;23.324;2023-04-03T13:48:07;7.10;;;6.40;;
13026;SDS011;6580;42.680;23.324;2023-04-03T13:51:05;7.30;;;6.60;;
13026;SDS011;6580;42.680;23.324;2023-04-03T13:54:12;7.43;;;6.60;;
13026;SDS011;6580;42.680;23.324;2023-04-03T13:57:49;7.60;;;6.90;;
13026;SDS011;6580;42.680;23.324;2023-04-03T14:00:35;6.47;;;5.87;;
13026;SDS011;6580;42.680;23.324;2023-04-03T14:03:24;7.33;;;6.57;;
13026;SDS011;6580;42.680;23.324;2023-04-03T14:06:13;8.03;;;6.30;;
13026;SDS011;6580;42.680;23.324;2023-04-03T14:09:00;7.20;;;6.50;;
13026;SDS011;6580;42.680;23.324;2023-04-03T14:11:46;7.80;;;7.00;;
13026;SDS011;6580;42.680;23.324;2023-04-03T14:14:33;7.63;;;6.83;;
13026;SDS011;6580;42.680;23.324;2023-04-03T14:17:22;8.10;;;7.30;;
13026;SDS011;6580;42.680;23.324;2023-04-03T14:20:14;7.37;;;6.63;;
13026;SDS011;6580;42.680;23.324;2023-04-03T14:23:03;7.27;;;6.60;;
13026;SDS011;6580;42.680;23.324;2023-04-03T14:25:48;7.20;;;6.50;;
13026;SDS011;6580;42.680;23.324;2023-04-03T14:28:34;6.87;;;6.27;;
13026;SDS011;6580;42.680;23.324;2023-04-03T14:31:20;7.80;;;7.00;;
13026;SDS011;6580;42.680;23.324;2023-04-03T14:34:06;9.13;;;6.87;;
13026;SDS011;6580;42.680;23.324;2023-04-03T14:36:51;7.27;;;6.57;;
13026;SDS011;6580;42.680;23.324;2023-04-03T14:39:40;7.30;;;6.70;;
13026;SDS011;6580;42.680;23.324;2023-04-03T14:42:27;8.37;;;7.53;;
13026;SDS011;6580;42.680;23.324;2023-04-03T14:45:15;7.57;;;6.17;;
13026;SDS011;6580;42.680;23.324;2023-04-03T14:48:03;7.47;;;6.70;;
13026;SDS011;6580;42.680;23.324;2023-04-03T14:50:57;7.50;;;6.40;;
13026;SDS011;6580;42.680;23.324;2023-04-03T14:53:43;8.30;;;6.67;;
13026;SDS011;6580;42.680;23.324;2023-04-03T14:56:31;6.60;;;6.00;;
13026;SDS011;6580;42.680;23.324;2023-04-03T14:59:16;6.07;;;5.43;;
13026;SDS011;6580;42.680;23.324;2023-04-03T15:02:09;6.03;;;5.53;;
13026;SDS011;6580;42.680;23.324;2023-04-03T15:05:13;5.83;;;5.33;;
13026;SDS011;6580;42.680;23.324;2023-04-03T15:07:59;5.47;;;4.97;;
13026;SDS011;6580;42.680;23.324;2023-04-03T15:10:50;5.93;;;5.43;;
13026;SDS011;6580;42.680;23.324;2023-04-03T15:13:38;5.67;;;5.10;;
13026;SDS011;6580;42.680;23.324;2023-04-03T15:16:24;5.00;;;4.50;;
13026;SDS011;6580;42.680;23.324;2023-04-03T15:19:10;5.30;;;4.80;;
13026;SDS011;6580;42.680;23.324;2023-04-03T15:21:56;5.23;;;4.70;;
13026;SDS011;6580;42.680;23.324;2023-04-03T15:24:41;5.10;;;4.60;;
13026;SDS011;6580;42.680;23.324;2023-04-03T15:27:27;4.97;;;4.47;;
13026;SDS011;6580;42.680;23.324;2023-04-03T15:30:16;6.03;;;4.17;;
13026;SDS011;6580;42.680;23.324;2023-04-03T15:33:03;4.40;;;4.00;;
13026;SDS011;6580;42.680;23.324;2023-04-03T15:35:50;4.30;;;3.90;;
13026;SDS011;6580;42.680;23.324;2023-04-03T15:38:35;7.13;;;5.80;;
13026;SDS011;6580;42.680;23.324;2023-04-03T15:41:21;6.07;;;5.20;;
13026;SDS011;6580;42.680;23.324;2023-04-03T15:44:07;6.20;;;5.07;;
13026;SDS011;6580;42.680;23.324;2023-04-03T15:46:55;5.43;;;4.93;;
13026;SDS011;6580;42.680;23.324;2023-04-03T15:49:40;4.93;;;4.53;;
13026;SDS011;6580;42.680;23.324;2023-04-03T15:52:26;4.93;;;4.53;;
13026;SDS011;6580;42.680;23.324;2023-04-03T15:55:13;6.77;;;5.40;;
13026;SDS011;6580;42.680;23.324;2023-04-03T15:58:00;9.00;;;7.73;;
13026;SDS011;6580;42.680;23.324;2023-04-03T16:00:46;5.80;;;5.30;;
13026;SDS011;6580;42.680;23.324;2023-04-03T16:03:32;5.50;;;5.00;;
13026;SDS011;6580;42.680;23.324;2023-04-03T16:06:19;5.07;;;4.70;;
13026;SDS011;6580;42.680;23.324;2023-04-03T16:09:05;5.03;;;4.63;;
13026;SDS011;6580;42.680;23.324;2023-04-03T16:11:51;5.17;;;4.67;;
13026;SDS011;6580;42.680;23.324;2023-04-03T16:14:37;5.57;;;5.03;;
13026;SDS011;6580;42.680;23.324;2023-04-03T16:17:22;5.03;;;4.57;;
13026;SDS011;6580;42.680;23.324;2023-04-03T16:20:09;5.67;;;5.07;;
13026;SDS011;6580;42.680;23.324;2023-04-03T16:22:56;4.90;;;4.50;;
13026;SDS011;6580;42.680;23.324;2023-04-03T16:25:44;5.10;;;4.70;;
13026;SDS011;6580;42.680;23.324;2023-04-03T16:28:30;4.87;;;4.40;;
13026;SDS011;6580;42.680;23.324;2023-04-03T16:31:16;4.87;;;4.47;;
13026;SDS011;6580;42.680;23.324;2023-04-03T16:34:02;5.53;;;5.03;;
13026;SDS011;6580;42.680;23.324;2023-04-03T16:36:49;5.70;;;5.13;;
13026;SDS011;6580;42.680;23.324;2023-04-03T16:39:36;6.27;;;5.67;;
13026;SDS011;6580;42.680;23.324;2023-04-03T16:42:21;5.87;;;5.27;;
13026;SDS011;6580;42.680;23.324;2023-04-03T16:45:07;6.13;;;5.57;;
13026;SDS011;6580;42.680;23.324;2023-04-03T16:47:54;5.30;;;4.90;;
13026;SDS011;6580;42.680;23.324;2023-04-03T16:50:39;7.63;;;5.50;;
13026;SDS011;6580;42.680;23.324;2023-04-03T16:53:26;6.03;;;5.43;;
13026;SDS011;6580;42.680;23.324;2023-04-03T16:56:12;6.13;;;5.53;;
13026;SDS011;6580;42.680;23.324;2023-04-03T16:58:57;6.47;;;5.67;;
13026;SDS011;6580;42.680;23.324;2023-04-03T17:01:43;6.67;;;6.03;;
13026;SDS011;6580;42.680;23.324;2023-04-03T17:04:28;6.87;;;5.70;;
13026;SDS011;6580;42.680;23.324;2023-04-03T17:07:18;6.40;;;5.80;;
13026;SDS011;6580;42.680;23.324;2023-04-03T17:10:13;5.50;;;5.00;;
13026;SDS011;6580;42.680;23.324;2023-04-03T17:13:00;7.33;;;6.47;;
13026;SDS011;6580;42.680;23.324;2023-04-03T17:15:45;7.97;;;7.03;;
13026;SDS011;6580;42.680;23.324;2023-04-03T17:18:31;5.83;;;5.23;;
13026;SDS011;6580;42.680;23.324;2023-04-03T17:21:16;7.73;;;6.07;;
13026;SDS011;6580;42.680;23.324;2023-04-03T17:24:03;6.93;;;6.00;;
13026;SDS011;6580;42.680;23.324;2023-04-03T17:26:53;5.93;;;5.33;;
13026;SDS011;6580;42.680;23.324;2023-04-03T17:29:39;4.97;;;4.47;;